Lavinia, Minnesota
Current Conditions -  °F | °C
As of 9:53 AM on Tuesday 21 Oct 2014 (Local Time) from KHIB Reporting Station
Overcast Overcast  
Wind Chill: 37°   Ceiling: 1400
Heat Index: 42°   Visibility: 10mi
Dew Point: 35°   Wind: 9mph
Humidity: 76%   Direction: 130°SE
Pressure: 30.22"   Gusts: NA
Location:  47.4158°N, 93.0053°W
Report Text: KHIB 211453Z AUTO 13008KT 10SM OVC014 06/02 A3022 RMK AO2 SLP245 T00560017 53009
Loading
Personal Weather Stations






























Interactive Weather Map
Tropical Storm Tracking
New forecast layout! Learn more

10-Day Weather Forecast

Advertisements
Track Severe Weather on mobile